createdAt,value
2022-09-12T00:00:24.525Z,11.52
2022-09-12T00:01:24.593Z,11.52
2022-09-12T00:02:24.526Z,11.53
2022-09-12T00:03:24.525Z,11.49
2022-09-12T00:04:24.481Z,11.53
2022-09-12T00:05:24.470Z,11.57
2022-09-12T00:06:24.462Z,11.68
2022-09-12T00:07:24.451Z,11.56
2022-09-12T00:08:24.458Z,11.64
2022-09-12T00:09:24.429Z,11.54
2022-09-12T00:10:24.420Z,11.59
2022-09-12T00:11:24.408Z,11.59
2022-09-12T00:12:24.403Z,11.67
2022-09-12T00:13:24.410Z,11.59
2022-09-12T00:14:24.379Z,11.61
2022-09-12T00:15:24.374Z,11.57
2022-09-12T00:16:24.435Z,11.65
2022-09-12T00:17:24.370Z,11.61
2022-09-12T00:18:24.365Z,11.68
2022-09-12T00:19:24.337Z,11.61
2022-09-12T00:20:24.323Z,11.74
2022-09-12T00:21:24.344Z,11.65
2022-09-12T00:22:24.312Z,11.80
2022-09-12T00:23:24.315Z,11.83
2022-09-12T00:24:24.284Z,11.78
2022-09-12T00:25:24.274Z,11.77
2022-09-12T00:26:24.267Z,11.80
2022-09-12T00:27:24.255Z,11.82
2022-09-12T00:28:24.270Z,11.85
2022-09-12T00:29:24.254Z,11.87
2022-09-12T00:30:24.224Z,11.82
2022-09-12T00:31:24.300Z,11.80
2022-09-12T00:32:24.208Z,11.86
2022-09-12T00:33:24.219Z,11.87
2022-09-12T00:34:24.189Z,11.83
2022-09-12T00:35:24.174Z,11.86
2022-09-12T00:36:24.170Z,11.85
2022-09-12T00:37:24.154Z,11.93
2022-09-12T00:38:24.176Z,11.87
2022-09-12T00:39:24.152Z,11.87
2022-09-12T00:40:24.124Z,11.87
2022-09-12T00:41:24.122Z,11.94
2022-09-12T00:42:24.112Z,11.94
2022-09-12T00:43:24.126Z,11.80
2022-09-12T00:44:24.087Z,11.82
2022-09-12T00:45:24.095Z,11.86
2022-09-12T00:46:24.072Z,11.86
2022-09-12T00:47:24.059Z,11.94
2022-09-12T00:48:24.071Z,11.87
2022-09-12T00:49:24.036Z,11.82
2022-09-12T00:50:24.034Z,11.86
2022-09-12T00:51:24.027Z,11.80
2022-09-12T00:52:24.015Z,11.77
2022-09-12T00:53:24.034Z,11.82
2022-09-12T00:54:23.987Z,11.85
2022-09-12T00:55:23.991Z,11.83
2022-09-12T00:56:23.993Z,11.70
2022-09-12T00:57:23.970Z,11.68
2022-09-12T00:58:23.974Z,11.72
2022-09-12T00:59:23.951Z,11.72
2022-09-12T01:00:23.939Z,11.65
2022-09-12T01:01:23.992Z,11.59
2022-09-12T01:02:23.931Z,11.71
2022-09-12T01:03:23.931Z,11.68
2022-09-12T01:04:23.895Z,11.61
2022-09-12T01:05:23.895Z,11.62
2022-09-12T01:06:23.882Z,11.65
2022-09-12T01:07:23.887Z,11.53
2022-09-12T01:08:23.873Z,11.59
2022-09-12T01:09:23.839Z,11.59
2022-09-12T01:10:23.842Z,11.38
2022-09-12T01:11:23.827Z,11.38
2022-09-12T01:12:23.813Z,11.31
2022-09-12T01:13:23.825Z,11.27
2022-09-12T01:14:23.803Z,11.24
2022-09-12T01:15:23.790Z,11.25
2022-09-12T01:16:23.822Z,11.27
2022-09-12T01:17:23.770Z,11.28
2022-09-12T01:18:23.779Z,11.27
2022-09-12T01:19:23.750Z,11.19
2022-09-12T01:20:23.749Z,11.29
2022-09-12T01:21:23.726Z,11.32
2022-09-12T01:22:23.724Z,11.28
2022-09-12T01:23:23.732Z,11.39
2022-09-12T01:24:23.714Z,11.28
2022-09-12T01:25:23.692Z,11.31
2022-09-12T01:26:23.683Z,11.29
2022-09-12T01:27:23.672Z,11.32
2022-09-12T01:28:23.684Z,11.32
2022-09-12T01:29:23.645Z,11.34
2022-09-12T01:30:23.652Z,11.35
2022-09-12T01:31:23.645Z,11.31
2022-09-12T01:32:23.655Z,11.34
2022-09-12T01:33:23.629Z,11.29
2022-09-12T01:34:23.608Z,11.32
2022-09-12T01:35:23.588Z,11.28
2022-09-12T01:36:24.585Z,11.29
2022-09-12T01:37:23.595Z,11.31
2022-09-12T01:38:23.581Z,11.14
2022-09-12T01:39:23.556Z,11.27
2022-09-12T01:40:23.543Z,11.31
2022-09-12T01:41:23.532Z,11.31
2022-09-12T01:42:23.521Z,11.21
2022-09-12T01:43:23.529Z,11.29
2022-09-12T01:44:23.510Z,11.21
2022-09-12T01:45:23.521Z,11.21
2022-09-12T01:46:23.484Z,11.17
2022-09-12T01:47:23.473Z,11.20
2022-09-12T01:48:23.472Z,11.21
2022-09-12T01:49:23.450Z,11.20
2022-09-12T01:50:23.451Z,11.17
2022-09-12T01:51:23.431Z,11.07
2022-09-12T01:52:23.457Z,11.01
2022-09-12T01:53:23.432Z,10.98
2022-09-12T01:54:23.404Z,10.98
2022-09-12T01:55:23.391Z,10.94
2022-09-12T01:56:23.387Z,10.94
2022-09-12T01:57:23.372Z,10.95
2022-09-12T01:58:23.384Z,10.94
2022-09-12T01:59:23.355Z,10.91
2022-09-12T02:00:23.348Z,10.83
2022-09-12T02:01:23.371Z,10.89
2022-09-12T02:02:23.350Z,10.81
2022-09-12T02:03:23.334Z,10.83
2022-09-12T02:04:23.305Z,10.74
2022-09-12T02:05:23.293Z,10.77
2022-09-12T02:06:23.288Z,10.84
2022-09-12T02:07:23.276Z,10.78
2022-09-12T02:08:23.287Z,10.77
2022-09-12T02:09:23.247Z,10.74
2022-09-12T02:10:23.248Z,10.73
2022-09-12T02:11:23.239Z,10.76
2022-09-12T02:12:23.225Z,10.70
2022-09-12T02:13:23.247Z,10.74
2022-09-12T02:14:23.203Z,10.68
2022-09-12T02:15:23.192Z,10.78
2022-09-12T02:16:23.224Z,10.78
2022-09-12T02:17:23.159Z,10.84
2022-09-12T02:18:23.179Z,10.71
2022-09-12T02:19:23.165Z,10.73
2022-09-12T02:20:44.460Z,10.76
2022-09-12T02:23:09.255Z,10.74
2022-09-12T02:24:09.253Z,10.71
2022-09-12T02:25:09.237Z,10.77
2022-09-12T02:26:09.231Z,10.76
2022-09-12T02:27:09.220Z,10.74
2022-09-12T02:28:09.239Z,10.73
2022-09-12T02:29:09.203Z,10.76
2022-09-12T02:30:09.192Z,10.77
2022-09-12T02:31:10.299Z,10.81
2022-09-12T02:32:10.287Z,10.83
2022-09-12T02:33:10.293Z,10.84
2022-09-12T02:34:10.265Z,10.81
2022-09-12T02:35:10.256Z,10.78
2022-09-12T02:36:10.251Z,10.76
2022-09-12T02:37:10.247Z,10.77
2022-09-12T02:38:10.244Z,10.81
2022-09-12T02:39:10.232Z,10.83
2022-09-12T02:40:10.282Z,10.81
2022-09-12T02:41:10.196Z,10.92
2022-09-12T02:42:10.189Z,10.94
2022-09-12T02:43:10.199Z,10.88
2022-09-12T02:44:10.172Z,10.84
2022-09-12T02:45:10.157Z,10.96
2022-09-12T02:46:10.187Z,10.78
2022-09-12T02:47:10.168Z,10.74
2022-09-12T02:48:10.853Z,10.66
2022-09-12T02:49:10.113Z,10.53
2022-09-12T02:50:10.108Z,10.47
2022-09-12T02:51:10.098Z,10.53
2022-09-12T02:52:10.094Z,10.46
2022-09-12T02:53:10.101Z,10.58
2022-09-12T02:54:10.073Z,10.59
2022-09-12T02:55:10.064Z,10.59
2022-09-12T02:56:10.041Z,10.62
2022-09-12T02:57:10.042Z,10.60
2022-09-12T02:58:10.049Z,10.66
2022-09-12T02:59:10.025Z,10.62
2022-09-12T03:00:10.007Z,10.74
2022-09-12T03:01:10.045Z,10.68
2022-09-12T03:02:10.030Z,10.76
2022-09-12T03:03:09.976Z,10.76
2022-09-12T03:04:10.985Z,10.68
2022-09-12T03:05:09.964Z,10.71
2022-09-12T03:06:09.952Z,10.71
2022-09-12T03:07:09.946Z,10.84
2022-09-12T03:08:09.937Z,10.77
2022-09-12T03:09:09.926Z,10.89
2022-09-12T03:10:09.911Z,10.91
2022-09-12T03:11:09.902Z,10.89
2022-09-12T03:12:09.887Z,10.95
2022-09-12T03:13:09.873Z,10.84
2022-09-12T03:14:09.888Z,10.91
2022-09-12T03:15:09.857Z,10.91
2022-09-12T03:16:09.872Z,10.84
2022-09-12T03:17:09.840Z,10.81
2022-09-12T03:18:09.843Z,10.83
2022-09-12T03:19:09.824Z,10.89
2022-09-12T03:20:09.816Z,10.88
2022-09-12T03:21:09.800Z,10.91
2022-09-12T03:22:09.791Z,10.91
2022-09-12T03:23:09.808Z,10.88
2022-09-12T03:24:09.763Z,10.86
2022-09-12T03:25:09.757Z,10.92
2022-09-12T03:26:09.767Z,10.88
2022-09-12T03:27:09.744Z,10.84
2022-09-12T03:28:09.745Z,10.83
2022-09-12T03:29:09.741Z,10.92
2022-09-12T03:30:09.712Z,10.86
2022-09-12T03:31:09.697Z,10.78
2022-09-12T03:32:09.710Z,10.89
2022-09-12T03:33:09.699Z,10.83
2022-09-12T03:34:09.670Z,10.83
2022-09-12T03:35:09.692Z,10.88
2022-09-12T03:36:09.645Z,10.91
2022-09-12T03:37:09.649Z,10.86
2022-09-12T03:38:09.630Z,10.86
2022-09-12T03:39:09.633Z,10.86
2022-09-12T03:40:09.714Z,10.76
2022-09-12T03:41:09.602Z,10.76
2022-09-12T03:42:09.595Z,10.89
2022-09-12T03:43:09.594Z,10.86
2022-09-12T03:44:09.571Z,10.94
2022-09-12T03:45:09.556Z,10.86
2022-09-12T03:46:09.614Z,10.81
2022-09-12T03:47:11.341Z,10.88
2022-09-12T03:48:10.544Z,10.92
2022-09-12T03:49:09.522Z,10.78
2022-09-12T03:50:09.518Z,10.95
2022-09-12T03:51:09.506Z,10.73
2022-09-12T03:52:09.489Z,10.78
2022-09-12T03:53:10.140Z,10.83
2022-09-12T03:54:09.474Z,10.83
2022-09-12T03:55:09.454Z,10.76
2022-09-12T03:56:09.434Z,10.89
2022-09-12T03:57:09.431Z,10.76
2022-09-12T03:58:09.439Z,10.76
2022-09-12T03:59:09.414Z,10.81
2022-09-12T04:00:09.399Z,10.84
2022-09-12T04:01:09.457Z,10.81
2022-09-12T04:02:09.405Z,10.88
2022-09-12T04:03:09.387Z,10.88
2022-09-12T04:04:09.358Z,10.80
2022-09-12T04:05:09.353Z,10.91
2022-09-12T04:06:09.342Z,10.88
2022-09-12T04:07:09.339Z,10.88
2022-09-12T04:08:09.334Z,10.89
2022-09-12T04:09:09.315Z,10.88
2022-09-12T04:10:09.725Z,10.91
2022-09-12T04:11:10.288Z,11.01
2022-09-12T04:12:09.286Z,10.99
2022-09-12T04:13:09.303Z,10.95
2022-09-12T04:14:09.276Z,11.02
2022-09-12T04:15:09.271Z,10.99
2022-09-12T04:16:09.314Z,11.03
2022-09-12T04:17:09.260Z,11.06
2022-09-12T04:18:09.257Z,11.06
2022-09-12T04:19:09.221Z,10.99
2022-09-12T04:20:09.204Z,10.98
2022-09-12T04:21:09.198Z,10.91
2022-09-12T04:22:09.175Z,10.88
2022-09-12T04:23:10.196Z,10.83
2022-09-12T04:24:09.175Z,10.86
2022-09-12T04:25:09.162Z,10.86
2022-09-12T04:26:09.154Z,10.86
2022-09-12T04:27:09.141Z,10.89
2022-09-12T04:28:09.143Z,10.88
2022-09-12T04:29:09.128Z,10.84
2022-09-12T04:30:09.113Z,10.77
2022-09-12T04:31:09.109Z,10.83
2022-09-12T04:32:09.087Z,10.89
2022-09-12T04:33:09.098Z,10.91
2022-09-12T04:34:09.071Z,10.86
2022-09-12T04:35:09.063Z,10.83
2022-09-12T04:36:09.061Z,10.91
2022-09-12T04:37:09.048Z,10.89
2022-09-12T04:38:09.052Z,10.89
2022-09-12T04:39:09.032Z,10.84
2022-09-12T04:40:09.056Z,10.80
2022-09-12T04:41:09.000Z,10.94
2022-09-12T04:42:08.986Z,10.96
2022-09-12T04:43:13.763Z,10.91
2022-09-12T04:44:09.965Z,10.98
2022-09-12T04:45:08.959Z,10.91
2022-09-12T04:46:08.991Z,10.94
2022-09-12T04:47:08.939Z,10.81
2022-09-12T04:48:08.927Z,10.91
2022-09-12T04:49:08.924Z,10.92
2022-09-12T04:50:08.910Z,11.02
2022-09-12T04:51:08.892Z,10.94
2022-09-12T04:52:08.881Z,11.07
2022-09-12T04:53:08.918Z,10.96
2022-09-12T04:54:08.867Z,11.03
2022-09-12T04:55:08.859Z,11.06
2022-09-12T04:56:08.845Z,11.09
2022-09-12T04:57:08.838Z,11.02
2022-09-12T04:58:08.841Z,11.09
2022-09-12T04:59:08.823Z,11.06
2022-09-12T05:00:08.807Z,11.06
2022-09-12T05:01:08.833Z,11.11
2022-09-12T05:02:08.848Z,11.09
2022-09-12T05:03:08.795Z,11.13
2022-09-12T05:04:08.772Z,10.99
2022-09-12T05:05:08.756Z,11.09
2022-09-12T05:06:08.748Z,11.13
2022-09-12T05:07:08.738Z,11.10
2022-09-12T05:08:08.735Z,11.10
2022-09-12T05:09:08.721Z,11.14
2022-09-12T05:10:08.705Z,11.16
2022-09-12T05:11:08.713Z,11.19
2022-09-12T05:12:08.674Z,11.17
2022-09-12T05:13:08.693Z,11.13
2022-09-12T05:14:08.672Z,11.20
2022-09-12T05:15:08.669Z,11.17
2022-09-12T05:16:08.688Z,11.28
2022-09-12T05:17:08.638Z,11.19
2022-09-12T05:18:08.687Z,11.25
2022-09-12T05:19:08.625Z,11.21
2022-09-12T05:20:08.607Z,11.24
2022-09-12T05:21:08.607Z,11.28
2022-09-12T05:22:08.582Z,11.27
2022-09-12T05:23:08.601Z,11.25
2022-09-12T05:24:08.581Z,11.32
2022-09-12T05:25:08.568Z,11.25
2022-09-12T05:26:08.556Z,11.31
2022-09-12T05:27:08.537Z,11.35
2022-09-12T05:28:08.544Z,11.29
2022-09-12T05:29:08.520Z,11.29
2022-09-12T05:30:08.502Z,11.43
2022-09-12T05:31:08.494Z,11.35
2022-09-12T05:32:08.496Z,11.31
2022-09-12T05:33:08.521Z,11.41
2022-09-12T05:34:08.472Z,11.34
2022-09-12T05:35:08.455Z,11.36
2022-09-12T05:36:08.461Z,11.38
2022-09-12T05:37:08.438Z,11.32
2022-09-12T05:38:08.440Z,11.36
2022-09-12T05:39:08.415Z,11.35
2022-09-12T05:40:08.479Z,11.41
2022-09-12T05:41:08.393Z,11.38
2022-09-12T05:42:08.386Z,11.53
2022-09-12T05:43:08.397Z,11.49
2022-09-12T05:44:08.363Z,11.43
2022-09-12T05:45:08.355Z,11.53
2022-09-12T05:46:08.392Z,11.61
2022-09-12T05:47:08.336Z,11.54
2022-09-12T05:48:08.341Z,11.59
2022-09-12T05:49:08.313Z,11.50
2022-09-12T05:50:08.309Z,11.57
2022-09-12T05:51:08.286Z,11.61
2022-09-12T05:52:08.287Z,11.54
2022-09-12T05:53:08.294Z,11.56
2022-09-12T05:54:08.274Z,11.65
2022-09-12T05:55:08.248Z,11.64
2022-09-12T05:56:08.297Z,11.72
2022-09-12T05:57:08.239Z,11.68
2022-09-12T05:58:08.239Z,11.77
2022-09-12T05:59:08.216Z,11.56
2022-09-12T06:00:08.208Z,11.50
2022-09-12T06:01:08.294Z,11.53
2022-09-12T06:02:08.218Z,11.57
2022-09-12T06:03:08.195Z,11.57
2022-09-12T06:04:08.176Z,11.43
2022-09-12T06:05:08.152Z,11.57
2022-09-12T06:06:08.154Z,11.59
2022-09-12T06:07:09.139Z,11.65
2022-09-12T06:08:08.135Z,11.64
2022-09-12T06:09:08.123Z,11.70
2022-09-12T06:10:08.106Z,11.82
2022-09-12T06:11:08.103Z,11.93
2022-09-12T06:12:08.094Z,11.96
2022-09-12T06:13:08.099Z,11.82
2022-09-12T06:14:08.075Z,11.87
2022-09-12T06:15:08.055Z,11.78
2022-09-12T06:16:08.065Z,11.89
2022-09-12T06:17:08.042Z,11.96
2022-09-12T06:18:08.034Z,12.02
2022-09-12T06:19:08.037Z,12.09
2022-09-12T06:20:08.016Z,11.97
2022-09-12T06:21:08.004Z,12.08
2022-09-12T06:22:07.998Z,12.08
2022-09-12T06:23:08.000Z,12.08
2022-09-12T06:24:07.973Z,12.08
2022-09-12T06:25:07.969Z,11.97
2022-09-12T06:26:07.962Z,11.97
2022-09-12T06:27:07.935Z,11.89
2022-09-12T06:28:07.936Z,11.90
2022-09-12T06:29:07.995Z,11.89
2022-09-12T06:30:07.977Z,11.97
2022-09-12T06:31:07.948Z,12.02
2022-09-12T06:32:07.900Z,11.99
2022-09-12T06:33:07.887Z,12.02
2022-09-12T06:34:07.896Z,12.04
2022-09-12T06:35:07.865Z,12.11
2022-09-12T06:36:12.043Z,12.11
2022-09-12T06:37:08.888Z,12.11
2022-09-12T06:38:07.832Z,12.24
2022-09-12T06:39:07.829Z,12.23
2022-09-12T06:40:07.869Z,12.15
2022-09-12T06:41:07.801Z,12.27
2022-09-12T06:42:07.797Z,12.41
2022-09-12T06:43:07.774Z,12.38
2022-09-12T06:44:07.789Z,12.45
2022-09-12T06:45:07.769Z,12.46
2022-09-12T06:46:07.824Z,12.59
2022-09-12T06:47:07.745Z,12.64
2022-09-12T06:48:07.739Z,12.71
2022-09-12T06:49:07.743Z,12.71
2022-09-12T06:50:07.716Z,12.82
2022-09-12T06:51:07.704Z,12.92
2022-09-12T06:52:07.692Z,12.92
2022-09-12T06:53:07.765Z,12.92
2022-09-12T06:54:07.690Z,13.02
2022-09-12T06:55:08.614Z,12.99
2022-09-12T06:56:07.658Z,13.09
2022-09-12T06:57:07.644Z,13.17
2022-09-12T06:58:07.652Z,13.07
2022-09-12T06:59:07.646Z,13.17
2022-09-12T07:00:07.611Z,13.24
2022-09-12T07:01:07.687Z,13.32
2022-09-12T07:02:07.681Z,13.32
2022-09-12T07:03:07.583Z,13.36
2022-09-12T07:04:07.578Z,13.32
2022-09-12T07:05:07.564Z,13.32
2022-09-12T07:06:07.548Z,13.37
2022-09-12T07:07:07.563Z,13.37
2022-09-12T07:08:07.530Z,13.40
2022-09-12T07:09:07.543Z,13.47
2022-09-12T07:10:07.531Z,13.55
2022-09-12T07:11:07.499Z,13.55
2022-09-12T07:12:07.494Z,13.58
2022-09-12T07:13:07.484Z,13.41
2022-09-12T07:14:07.479Z,13.44
2022-09-12T07:15:07.482Z,13.41
2022-09-12T07:16:07.444Z,13.25
2022-09-12T07:17:07.480Z,12.85
2022-09-12T07:18:07.440Z,12.67
2022-09-12T07:19:07.458Z,12.64
2022-09-12T07:20:07.408Z,12.78
2022-09-12T07:21:07.423Z,12.88
2022-09-12T07:22:07.387Z,12.82
2022-09-12T07:23:07.387Z,12.69
2022-09-12T07:24:07.381Z,12.78
2022-09-12T07:25:07.354Z,12.89
2022-09-12T07:26:07.347Z,13.00
2022-09-12T07:27:07.344Z,13.12
2022-09-12T07:28:07.334Z,13.30
2022-09-12T07:29:34.851Z,13.43
2022-09-12T07:30:09.309Z,13.51
2022-09-12T07:31:07.345Z,13.56
2022-09-12T07:32:07.298Z,13.65
2022-09-12T07:33:07.292Z,13.81
2022-09-12T07:34:07.299Z,13.96
2022-09-12T07:35:07.263Z,13.98
2022-09-12T07:36:07.263Z,14.17
2022-09-12T07:37:07.236Z,14.16
2022-09-12T07:38:07.226Z,14.34
2022-09-12T07:39:07.215Z,14.34
2022-09-12T07:40:07.293Z,14.31
2022-09-12T07:41:07.199Z,13.87
2022-09-12T07:42:07.192Z,13.61
2022-09-12T07:43:07.171Z,13.55
2022-09-12T07:44:07.205Z,13.52
2022-09-12T07:45:07.184Z,13.52
2022-09-12T07:46:08.179Z,13.67
2022-09-12T07:47:07.135Z,13.80
2022-09-12T07:48:07.130Z,13.83
2022-09-12T07:49:08.378Z,13.81
2022-09-12T07:50:07.106Z,13.52
2022-09-12T07:51:07.093Z,13.46
2022-09-12T07:52:07.087Z,13.46
2022-09-12T07:53:07.084Z,13.59
2022-09-12T07:54:07.079Z,13.67
2022-09-12T07:55:07.048Z,13.83
2022-09-12T07:56:08.044Z,14.04
2022-09-12T07:57:07.039Z,14.06
2022-09-12T07:58:07.017Z,14.20
2022-09-12T07:59:07.047Z,14.28
2022-09-12T08:00:07.013Z,14.43
2022-09-12T08:01:07.024Z,14.54
2022-09-12T08:02:07.009Z,14.69
2022-09-12T08:03:06.987Z,14.72
2022-09-12T08:04:06.963Z,14.71
2022-09-12T08:05:06.969Z,14.71
2022-09-12T08:06:06.952Z,14.78
2022-09-12T08:07:06.935Z,14.91
2022-09-12T08:08:06.918Z,14.94
2022-09-12T08:09:06.935Z,15.12
2022-09-12T08:10:06.917Z,15.26
2022-09-12T08:11:06.897Z,15.19
2022-09-12T08:12:06.880Z,15.02
2022-09-12T08:13:06.880Z,14.86
2022-09-12T08:14:06.861Z,14.71
2022-09-12T08:15:06.845Z,14.75
2022-09-12T08:16:06.892Z,14.83
2022-09-12T08:17:06.860Z,14.91
2022-09-12T08:18:06.844Z,15.01
2022-09-12T08:19:06.830Z,15.02
2022-09-12T08:20:06.799Z,15.12
2022-09-12T08:21:06.788Z,15.21
2022-09-12T08:22:06.781Z,15.35
2022-09-12T08:23:06.775Z,15.42
2022-09-12T08:24:06.800Z,15.41
2022-09-12T08:25:06.747Z,15.54
2022-09-12T08:26:06.735Z,15.64
2022-09-12T08:27:06.720Z,15.57
2022-09-12T08:28:06.723Z,15.63
2022-09-12T08:29:06.723Z,15.81
2022-09-12T08:30:06.701Z,15.89
2022-09-12T08:31:06.736Z,16.04
2022-09-12T08:32:06.679Z,16.12
2022-09-12T08:33:06.670Z,16.22
2022-09-12T08:34:06.677Z,16.26
2022-09-12T08:35:06.642Z,16.37
2022-09-12T08:36:06.643Z,16.42
2022-09-12T08:37:06.626Z,16.45
2022-09-12T08:38:06.622Z,16.45
2022-09-12T08:39:06.627Z,16.58
2022-09-12T08:40:06.638Z,16.50
2022-09-12T08:41:06.588Z,16.48
2022-09-12T08:42:06.618Z,16.49
2022-09-12T08:43:06.593Z,16.48
2022-09-12T08:44:06.611Z,16.48
2022-09-12T08:45:06.562Z,16.44
2022-09-12T08:46:06.622Z,16.52
2022-09-12T08:47:06.543Z,16.59
2022-09-12T08:48:06.548Z,16.68
2022-09-12T08:49:06.542Z,16.78
2022-09-12T08:50:06.516Z,16.92
2022-09-12T08:51:06.503Z,16.90
2022-09-12T08:52:06.515Z,16.85
2022-09-12T08:53:06.491Z,16.96
2022-09-12T08:54:06.521Z,16.89
2022-09-12T08:55:06.465Z,16.81
2022-09-12T08:56:06.456Z,17.07
2022-09-12T08:57:06.434Z,17.11
2022-09-12T08:58:06.460Z,17.11
2022-09-12T08:59:06.422Z,17.18
2022-09-12T09:00:06.404Z,17.40
2022-09-12T09:01:06.433Z,17.53
2022-09-12T09:02:06.418Z,17.59
2022-09-12T09:03:06.404Z,17.63
2022-09-12T09:04:06.373Z,17.78
2022-09-12T09:05:06.363Z,17.82
2022-09-12T09:06:06.342Z,17.99
2022-09-12T09:07:06.343Z,17.92
2022-09-12T09:08:06.352Z,18.03
2022-09-12T09:09:06.311Z,18.03
2022-09-12T09:10:06.311Z,18.02
2022-09-12T09:11:06.306Z,18.18
2022-09-12T09:12:06.283Z,18.29
2022-09-12T09:13:06.305Z,18.47
2022-09-12T09:14:06.265Z,18.52
2022-09-12T09:15:06.259Z,18.64
2022-09-12T09:16:06.320Z,18.73
2022-09-12T09:17:06.241Z,18.90
2022-09-12T09:18:06.249Z,19.08
2022-09-12T09:19:06.220Z,19.25
2022-09-12T09:20:06.225Z,19.02
2022-09-12T09:21:06.197Z,19.01
2022-09-12T09:22:06.290Z,19.02
2022-09-12T09:23:06.204Z,19.14
2022-09-12T09:24:06.211Z,19.36
2022-09-12T09:25:06.162Z,19.47
2022-09-12T09:26:06.146Z,19.68
2022-09-12T09:27:14.328Z,19.78
2022-09-12T09:28:08.144Z,19.93
2022-09-12T09:29:06.109Z,19.70
2022-09-12T09:30:06.111Z,19.83
2022-09-12T09:31:06.123Z,19.91
2022-09-12T09:32:06.085Z,19.94
2022-09-12T09:33:06.086Z,20.08
2022-09-12T09:34:06.072Z,20.12
2022-09-12T09:35:06.058Z,20.16
2022-09-12T09:36:06.052Z,20.28
2022-09-12T09:37:06.024Z,20.28
2022-09-12T09:38:06.027Z,20.35
2022-09-12T09:39:06.038Z,20.54
2022-09-12T09:40:06.073Z,20.49
2022-09-12T09:41:06.001Z,20.62
2022-09-12T09:42:05.982Z,20.54
2022-09-12T09:43:05.986Z,20.66
2022-09-12T09:45:05.958Z,20.30
2022-09-12T09:46:05.964Z,20.16
2022-09-12T09:47:05.934Z,20.15
2022-09-12T09:48:05.922Z,19.98
2022-09-12T09:49:05.929Z,19.90
2022-09-12T09:50:05.909Z,19.87
2022-09-12T09:51:05.899Z,19.75
2022-09-12T09:52:05.886Z,19.66
2022-09-12T09:53:05.894Z,19.72
2022-09-12T09:54:05.887Z,19.83
2022-09-12T09:55:05.859Z,19.84
2022-09-12T09:56:05.864Z,19.69
2022-09-12T09:57:05.837Z,19.55
2022-09-12T09:58:05.830Z,19.40
2022-09-12T09:59:05.845Z,19.35
2022-09-12T10:00:05.813Z,19.21
2022-09-12T10:01:05.889Z,19.24
2022-09-12T10:02:05.846Z,19.35
2022-09-12T10:03:08.209Z,19.48
2022-09-12T10:04:05.788Z,19.66
2022-09-12T10:05:05.759Z,19.88
2022-09-12T10:06:05.762Z,20.00
2022-09-12T10:07:05.738Z,20.16
2022-09-12T10:08:05.729Z,20.13
2022-09-12T10:09:05.734Z,20.20
2022-09-12T10:10:05.720Z,20.16
2022-09-12T10:11:05.703Z,20.25
2022-09-12T10:12:05.693Z,20.53
2022-09-12T10:13:05.667Z,20.61
2022-09-12T10:14:05.684Z,20.58
2022-09-12T10:15:05.669Z,20.65
2022-09-12T10:16:05.707Z,20.72
2022-09-12T10:17:05.631Z,20.66
2022-09-12T10:18:05.630Z,20.43
2022-09-12T10:19:05.642Z,20.54
2022-09-12T10:20:22.038Z,20.54
2022-09-12T10:21:07.601Z,20.72
2022-09-12T10:22:05.589Z,20.69
2022-09-12T10:23:05.579Z,20.72
2022-09-12T10:24:05.585Z,20.80
2022-09-12T10:25:05.572Z,20.81
2022-09-12T10:26:05.556Z,20.74
2022-09-12T10:27:05.550Z,20.86
2022-09-12T10:28:05.538Z,21.01
2022-09-12T10:29:05.533Z,21.01
2022-09-12T10:30:05.509Z,21.05
2022-09-12T10:31:05.552Z,21.05
2022-09-12T10:32:06.492Z,21.26
2022-09-12T10:33:05.480Z,21.46
2022-09-12T10:34:05.484Z,21.53
2022-09-12T10:35:05.463Z,21.50
2022-09-12T10:36:05.452Z,21.42
2022-09-12T10:37:05.439Z,21.42
2022-09-12T10:38:05.429Z,21.42
2022-09-12T10:39:05.437Z,21.51
2022-09-12T10:40:05.482Z,21.30
2022-09-12T10:41:05.406Z,21.09
2022-09-12T10:42:05.403Z,21.24
2022-09-12T10:43:05.390Z,21.27
2022-09-12T10:44:05.394Z,20.95
2022-09-12T10:45:05.355Z,20.56
2022-09-12T10:46:05.388Z,20.51
2022-09-12T10:47:05.343Z,20.77
2022-09-12T10:48:07.666Z,20.95
2022-09-12T10:49:06.341Z,20.98
2022-09-12T10:50:05.317Z,21.14
2022-09-12T10:51:05.302Z,21.20
2022-09-12T10:52:05.293Z,21.19
2022-09-12T10:53:05.290Z,21.21
2022-09-12T10:54:05.305Z,20.76
2022-09-12T10:55:05.259Z,20.72
2022-09-12T10:56:05.258Z,20.83
2022-09-12T10:57:05.237Z,21.14
2022-09-12T10:58:05.236Z,21.34
2022-09-12T10:59:05.250Z,21.61
2022-09-12T11:00:05.213Z,21.85
2022-09-12T11:01:05.228Z,22.10
2022-09-12T11:02:05.242Z,21.99
2022-09-12T11:03:05.188Z,22.20
2022-09-12T11:04:05.193Z,22.31
2022-09-12T11:05:05.219Z,22.43
2022-09-12T11:06:05.155Z,22.50
2022-09-12T11:07:05.147Z,22.68
2022-09-12T11:08:05.144Z,22.67
2022-09-12T11:09:05.142Z,22.84
2022-09-12T11:10:05.136Z,22.86
2022-09-12T11:11:05.108Z,22.86
2022-09-12T11:12:05.090Z,22.92
2022-09-12T11:13:05.124Z,23.02
2022-09-12T11:14:05.096Z,23.09
2022-09-12T11:15:05.068Z,23.14
2022-09-12T11:16:05.090Z,22.87
2022-09-12T11:17:05.039Z,22.69
2022-09-12T11:18:05.039Z,22.69
2022-09-12T11:19:05.054Z,22.67
2022-09-12T11:20:05.017Z,22.82
2022-09-12T11:21:05.001Z,22.84
2022-09-12T11:22:04.990Z,22.86
2022-09-12T11:23:05.981Z,22.90
2022-09-12T11:24:05.011Z,22.87
2022-09-12T11:25:05.957Z,22.83
2022-09-12T11:26:04.950Z,22.75
2022-09-12T11:27:04.963Z,22.86
2022-09-12T11:28:04.933Z,22.99
2022-09-12T11:29:04.937Z,22.87
2022-09-12T11:30:04.907Z,22.75
2022-09-12T11:31:04.979Z,22.60
2022-09-12T11:32:04.915Z,22.71
2022-09-12T11:33:04.879Z,22.78
2022-09-12T11:34:04.911Z,22.80
2022-09-12T11:35:04.867Z,22.94
2022-09-12T11:36:04.860Z,22.97
2022-09-12T11:37:09.864Z,23.11
2022-09-12T11:38:06.831Z,23.29
2022-09-12T11:39:04.851Z,23.34
2022-09-12T11:40:04.912Z,23.46
2022-09-12T11:41:04.801Z,23.60
2022-09-12T11:42:04.796Z,23.57
2022-09-12T11:43:04.771Z,23.45
2022-09-12T11:44:04.793Z,23.49
2022-09-12T11:45:04.758Z,23.52
2022-09-12T11:46:04.780Z,23.34
2022-09-12T11:47:04.762Z,23.40
2022-09-12T11:48:04.735Z,23.45
2022-09-12T11:49:04.742Z,23.34
2022-09-12T11:50:04.717Z,23.17
2022-09-12T11:51:04.702Z,22.97
2022-09-12T11:52:04.731Z,22.90
2022-09-12T11:53:04.689Z,22.97
2022-09-12T11:54:04.691Z,23.05
2022-09-12T11:55:04.661Z,23.12
2022-09-12T11:56:04.663Z,23.24
2022-09-12T11:57:04.645Z,23.17
2022-09-12T11:58:04.678Z,23.09
2022-09-12T11:59:04.642Z,23.01
2022-09-12T12:00:04.615Z,22.84
2022-09-12T12:01:04.598Z,22.69
2022-09-12T12:02:04.622Z,22.75
2022-09-12T12:03:04.601Z,22.68
2022-09-12T12:04:04.627Z,22.89
2022-09-12T12:05:04.594Z,22.97
2022-09-12T12:06:04.556Z,23.09
2022-09-12T12:07:04.556Z,23.19
2022-09-12T12:08:04.539Z,23.34
2022-09-12T12:09:04.562Z,23.38
2022-09-12T12:10:04.520Z,23.45
2022-09-12T12:11:04.501Z,23.52
2022-09-12T12:12:04.508Z,23.53
2022-09-12T12:13:04.498Z,23.20
2022-09-12T12:14:04.502Z,23.07
2022-09-12T12:15:04.484Z,23.32
2022-09-12T12:16:04.499Z,23.40
2022-09-12T12:17:04.456Z,23.43
2022-09-12T12:18:04.444Z,23.43
2022-09-12T12:19:07.584Z,23.72
2022-09-12T12:20:08.330Z,23.86
2022-09-12T12:21:05.414Z,23.60
2022-09-12T12:22:04.404Z,23.62
2022-09-12T12:23:04.407Z,23.60
2022-09-12T12:24:04.402Z,23.67
2022-09-12T12:25:04.431Z,23.76
2022-09-12T12:26:04.363Z,23.90
2022-09-12T12:27:04.346Z,24.16
2022-09-12T12:28:04.339Z,24.14
2022-09-12T12:29:04.363Z,24.07
2022-09-12T12:30:04.351Z,24.19
2022-09-12T12:31:04.318Z,23.72
2022-09-12T12:32:04.315Z,23.49
2022-09-12T12:33:04.285Z,23.39
2022-09-12T12:34:04.289Z,23.02
2022-09-12T12:35:04.259Z,23.05
2022-09-12T12:36:04.255Z,23.04
2022-09-12T12:37:07.272Z,23.07
2022-09-12T12:38:05.255Z,23.12
2022-09-12T12:39:04.237Z,23.15
2022-09-12T12:40:04.240Z,23.15
2022-09-12T12:41:04.192Z,23.26
2022-09-12T12:42:05.207Z,23.23
2022-09-12T12:43:04.182Z,22.72
2022-09-12T12:44:04.191Z,22.52
2022-09-12T12:45:04.176Z,22.65
2022-09-12T12:46:04.200Z,22.83
2022-09-12T12:47:04.132Z,23.11
2022-09-12T12:48:08.080Z,23.35
2022-09-12T12:49:05.152Z,23.43
2022-09-12T12:50:04.119Z,23.46
2022-09-12T12:51:04.117Z,23.61
2022-09-12T12:52:04.104Z,23.31
2022-09-12T12:53:04.087Z,23.27
2022-09-12T12:54:04.100Z,23.42
2022-09-12T12:55:04.066Z,23.31